sensor_id;sensor_type;location;lat;lon;timestamp;temperature;humidity
12053;DHT22;6087;48.982;12.064;2023-03-09T00:01:21;8.10;99.90
12053;DHT22;6087;48.982;12.064;2023-03-09T00:03:49;8.10;99.90
12053;DHT22;6087;48.982;12.064;2023-03-09T00:06:16;8.10;99.90
12053;DHT22;6087;48.982;12.064;2023-03-09T00:08:45;8.10;99.90
12053;DHT22;6087;48.982;12.064;2023-03-09T00:11:15;8.10;99.90
12053;DHT22;6087;48.982;12.064;2023-03-09T00:13:42;8.00;99.90
12053;DHT22;6087;48.982;12.064;2023-03-09T00:16:11;8.10;99.90
12053;DHT22;6087;48.982;12.064;2023-03-09T00:18:39;8.10;99.90
12053;DHT22;6087;48.982;12.064;2023-03-09T00:21:06;8.10;99.90
12053;DHT22;6087;48.982;12.064;2023-03-09T00:23:40;8.10;99.90
12053;DHT22;6087;48.982;12.064;2023-03-09T00:26:09;8.10;99.90
12053;DHT22;6087;48.982;12.064;2023-03-09T00:28:35;8.10;99.90
12053;DHT22;6087;48.982;12.064;2023-03-09T00:31:05;8.10;99.90
12053;DHT22;6087;48.982;12.064;2023-03-09T00:33:32;8.10;99.90
12053;DHT22;6087;48.982;12.064;2023-03-09T00:35:59;8.10;99.90
12053;DHT22;6087;48.982;12.064;2023-03-09T00:38:26;8.10;99.90
12053;DHT22;6087;48.982;12.064;2023-03-09T00:40:53;8.10;99.90
12053;DHT22;6087;48.982;12.064;2023-03-09T00:43:22;8.10;99.90
12053;DHT22;6087;48.982;12.064;2023-03-09T00:45:48;8.10;99.90
12053;DHT22;6087;48.982;12.064;2023-03-09T00:48:16;8.10;99.90
12053;DHT22;6087;48.982;12.064;2023-03-09T00:50:42;8.10;99.90
12053;DHT22;6087;48.982;12.064;2023-03-09T00:53:12;8.10;99.90
12053;DHT22;6087;48.982;12.064;2023-03-09T00:55:43;8.10;99.90
12053;DHT22;6087;48.982;12.064;2023-03-09T00:58:10;8.10;99.90
12053;DHT22;6087;48.982;12.064;2023-03-09T01:00:39;8.10;99.90
12053;DHT22;6087;48.982;12.064;2023-03-09T01:03:13;8.10;99.90
12053;DHT22;6087;48.982;12.064;2023-03-09T01:05:40;8.10;99.90
12053;DHT22;6087;48.982;12.064;2023-03-09T01:08:07;8.20;99.90
12053;DHT22;6087;48.982;12.064;2023-03-09T01:10:37;8.20;99.90
12053;DHT22;6087;48.982;12.064;2023-03-09T01:13:04;8.20;99.90
12053;DHT22;6087;48.982;12.064;2023-03-09T01:15:31;8.20;99.90
12053;DHT22;6087;48.982;12.064;2023-03-09T01:18:00;8.20;99.90
12053;DHT22;6087;48.982;12.064;2023-03-09T01:20:27;8.20;99.90
12053;DHT22;6087;48.982;12.064;2023-03-09T01:22:54;8.20;99.90
12053;DHT22;6087;48.982;12.064;2023-03-09T01:25:21;8.20;99.90
12053;DHT22;6087;48.982;12.064;2023-03-09T01:27:47;8.20;99.90
12053;DHT22;6087;48.982;12.064;2023-03-09T01:30:15;8.20;99.90
12053;DHT22;6087;48.982;12.064;2023-03-09T01:32:42;8.20;99.90
12053;DHT22;6087;48.982;12.064;2023-03-09T01:35:10;8.20;99.90
12053;DHT22;6087;48.982;12.064;2023-03-09T01:37:37;8.20;99.90
12053;DHT22;6087;48.982;12.064;2023-03-09T01:40:06;8.20;99.90
12053;DHT22;6087;48.982;12.064;2023-03-09T01:42:33;8.20;99.90
12053;DHT22;6087;48.982;12.064;2023-03-09T01:48:07;8.20;99.90
12053;DHT22;6087;48.982;12.064;2023-03-09T01:50:35;8.20;99.90
12053;DHT22;6087;48.982;12.064;2023-03-09T01:53:05;8.20;99.90
12053;DHT22;6087;48.982;12.064;2023-03-09T01:55:37;8.20;99.90
12053;DHT22;6087;48.982;12.064;2023-03-09T01:58:08;8.20;99.90
12053;DHT22;6087;48.982;12.064;2023-03-09T02:00:39;8.20;99.90
12053;DHT22;6087;48.982;12.064;2023-03-09T02:03:09;8.20;99.90
12053;DHT22;6087;48.982;12.064;2023-03-09T02:05:41;8.20;99.90
12053;DHT22;6087;48.982;12.064;2023-03-09T02:08:10;8.20;99.90
12053;DHT22;6087;48.982;12.064;2023-03-09T02:10:40;8.20;99.90
12053;DHT22;6087;48.982;12.064;2023-03-09T02:13:12;8.20;99.90
12053;DHT22;6087;48.982;12.064;2023-03-09T02:15:41;8.20;99.90
12053;DHT22;6087;48.982;12.064;2023-03-09T02:18:08;8.20;99.90
12053;DHT22;6087;48.982;12.064;2023-03-09T02:20:41;8.20;99.90
12053;DHT22;6087;48.982;12.064;2023-03-09T02:23:16;8.20;99.90
12053;DHT22;6087;48.982;12.064;2023-03-09T02:25:48;8.20;99.90
12053;DHT22;6087;48.982;12.064;2023-03-09T02:28:20;8.20;99.90
12053;DHT22;6087;48.982;12.064;2023-03-09T02:30:48;8.30;99.90
12053;DHT22;6087;48.982;12.064;2023-03-09T02:33:23;8.30;99.90
12053;DHT22;6087;48.982;12.064;2023-03-09T02:35:53;8.40;99.90
12053;DHT22;6087;48.982;12.064;2023-03-09T02:38:20;8.40;99.90
12053;DHT22;6087;48.982;12.064;2023-03-09T02:40:47;8.40;99.90
12053;DHT22;6087;48.982;12.064;2023-03-09T02:43:16;8.40;99.90
12053;DHT22;6087;48.982;12.064;2023-03-09T02:45:46;8.40;99.90
12053;DHT22;6087;48.982;12.064;2023-03-09T02:48:13;8.40;99.90
12053;DHT22;6087;48.982;12.064;2023-03-09T02:50:40;8.40;99.90
12053;DHT22;6087;48.982;12.064;2023-03-09T02:53:08;8.40;99.90
12053;DHT22;6087;48.982;12.064;2023-03-09T02:55:35;8.50;99.90
12053;DHT22;6087;48.982;12.064;2023-03-09T02:58:02;8.50;99.90
12053;DHT22;6087;48.982;12.064;2023-03-09T03:00:29;8.50;99.90
12053;DHT22;6087;48.982;12.064;2023-03-09T03:02:58;8.50;99.90
12053;DHT22;6087;48.982;12.064;2023-03-09T03:05:25;8.50;99.90
12053;DHT22;6087;48.982;12.064;2023-03-09T03:07:52;8.50;99.90
12053;DHT22;6087;48.982;12.064;2023-03-09T03:10:19;8.50;99.90
12053;DHT22;6087;48.982;12.064;2023-03-09T03:12:46;8.50;99.90
12053;DHT22;6087;48.982;12.064;2023-03-09T03:15:13;8.50;99.90
12053;DHT22;6087;48.982;12.064;2023-03-09T03:17:40;8.50;99.90
12053;DHT22;6087;48.982;12.064;2023-03-09T03:20:10;8.50;99.90
12053;DHT22;6087;48.982;12.064;2023-03-09T03:22:40;8.50;99.90
12053;DHT22;6087;48.982;12.064;2023-03-09T03:25:08;8.50;99.90
12053;DHT22;6087;48.982;12.064;2023-03-09T03:27:35;8.50;99.90
12053;DHT22;6087;48.982;12.064;2023-03-09T03:30:02;8.50;99.90
12053;DHT22;6087;48.982;12.064;2023-03-09T03:32:30;8.40;99.90
12053;DHT22;6087;48.982;12.064;2023-03-09T03:34:57;8.40;99.90
12053;DHT22;6087;48.982;12.064;2023-03-09T03:37:25;8.40;99.90
12053;DHT22;6087;48.982;12.064;2023-03-09T03:39:52;8.40;99.90
12053;DHT22;6087;48.982;12.064;2023-03-09T03:42:19;8.30;99.90
12053;DHT22;6087;48.982;12.064;2023-03-09T03:44:46;8.30;99.90
12053;DHT22;6087;48.982;12.064;2023-03-09T03:47:13;8.30;99.90
12053;DHT22;6087;48.982;12.064;2023-03-09T03:49:40;8.30;99.90
12053;DHT22;6087;48.982;12.064;2023-03-09T03:52:08;8.30;99.90
12053;DHT22;6087;48.982;12.064;2023-03-09T03:54:38;8.30;99.90
12053;DHT22;6087;48.982;12.064;2023-03-09T03:57:05;8.20;99.90
12053;DHT22;6087;48.982;12.064;2023-03-09T03:59:32;8.20;99.90
12053;DHT22;6087;48.982;12.064;2023-03-09T04:01:59;8.20;99.90
12053;DHT22;6087;48.982;12.064;2023-03-09T04:04:26;8.10;99.90
12053;DHT22;6087;48.982;12.064;2023-03-09T04:06:53;8.10;99.90
12053;DHT22;6087;48.982;12.064;2023-03-09T04:09:20;8.10;99.90
12053;DHT22;6087;48.982;12.064;2023-03-09T04:11:49;8.10;99.90
12053;DHT22;6087;48.982;12.064;2023-03-09T04:14:16;8.10;99.90
12053;DHT22;6087;48.982;12.064;2023-03-09T04:16:43;8.10;99.90
12053;DHT22;6087;48.982;12.064;2023-03-09T04:19:10;8.10;99.90
12053;DHT22;6087;48.982;12.064;2023-03-09T04:21:37;8.00;99.90
12053;DHT22;6087;48.982;12.064;2023-03-09T04:24:04;8.00;99.90
12053;DHT22;6087;48.982;12.064;2023-03-09T04:26:32;8.00;99.90
12053;DHT22;6087;48.982;12.064;2023-03-09T04:29:01;8.00;99.90
12053;DHT22;6087;48.982;12.064;2023-03-09T04:31:28;8.00;99.90
12053;DHT22;6087;48.982;12.064;2023-03-09T04:33:55;7.90;99.90
12053;DHT22;6087;48.982;12.064;2023-03-09T04:36:21;7.90;99.90
12053;DHT22;6087;48.982;12.064;2023-03-09T04:38:48;7.90;99.90
12053;DHT22;6087;48.982;12.064;2023-03-09T04:41:15;7.90;99.90
12053;DHT22;6087;48.982;12.064;2023-03-09T04:43:42;7.80;99.90
12053;DHT22;6087;48.982;12.064;2023-03-09T04:46:11;7.80;99.90
12053;DHT22;6087;48.982;12.064;2023-03-09T04:48:38;7.80;99.90
12053;DHT22;6087;48.982;12.064;2023-03-09T04:51:05;7.80;99.90
12053;DHT22;6087;48.982;12.064;2023-03-09T04:53:32;7.80;99.90
12053;DHT22;6087;48.982;12.064;2023-03-09T04:55:59;7.70;99.90
12053;DHT22;6087;48.982;12.064;2023-03-09T04:58:26;7.70;99.90
12053;DHT22;6087;48.982;12.064;2023-03-09T05:00:53;7.70;99.90
12053;DHT22;6087;48.982;12.064;2023-03-09T05:03:21;7.60;99.90
12053;DHT22;6087;48.982;12.064;2023-03-09T05:05:48;7.60;99.90
12053;DHT22;6087;48.982;12.064;2023-03-09T05:08:15;7.60;99.90
12053;DHT22;6087;48.982;12.064;2023-03-09T05:10:42;7.50;99.90
12053;DHT22;6087;48.982;12.064;2023-03-09T05:13:09;7.50;99.90
12053;DHT22;6087;48.982;12.064;2023-03-09T05:15:37;7.50;99.90
12053;DHT22;6087;48.982;12.064;2023-03-09T05:18:05;7.50;99.90
12053;DHT22;6087;48.982;12.064;2023-03-09T05:20:33;7.50;99.90
12053;DHT22;6087;48.982;12.064;2023-03-09T05:23:01;7.50;99.90
12053;DHT22;6087;48.982;12.064;2023-03-09T05:25:28;7.50;99.90
12053;DHT22;6087;48.982;12.064;2023-03-09T05:27:55;7.50;99.90
12053;DHT22;6087;48.982;12.064;2023-03-09T05:30:22;7.40;99.90
12053;DHT22;6087;48.982;12.064;2023-03-09T05:32:49;7.40;99.90
12053;DHT22;6087;48.982;12.064;2023-03-09T05:35:17;7.40;99.90
12053;DHT22;6087;48.982;12.064;2023-03-09T05:37:45;7.40;99.90
12053;DHT22;6087;48.982;12.064;2023-03-09T05:40:13;7.40;99.90
12053;DHT22;6087;48.982;12.064;2023-03-09T05:42:42;7.40;99.90
12053;DHT22;6087;48.982;12.064;2023-03-09T05:45:10;7.40;99.90
12053;DHT22;6087;48.982;12.064;2023-03-09T05:47:37;7.40;99.90
12053;DHT22;6087;48.982;12.064;2023-03-09T05:50:06;7.40;99.90
12053;DHT22;6087;48.982;12.064;2023-03-09T05:52:33;7.40;99.90
12053;DHT22;6087;48.982;12.064;2023-03-09T05:55:01;7.40;99.90
12053;DHT22;6087;48.982;12.064;2023-03-09T05:57:28;7.50;99.90
12053;DHT22;6087;48.982;12.064;2023-03-09T05:59:55;7.50;99.90
12053;DHT22;6087;48.982;12.064;2023-03-09T06:02:22;7.50;99.90
12053;DHT22;6087;48.982;12.064;2023-03-09T06:04:49;7.50;99.90
12053;DHT22;6087;48.982;12.064;2023-03-09T06:07:16;7.60;99.90
12053;DHT22;6087;48.982;12.064;2023-03-09T06:09:43;7.60;99.90
12053;DHT22;6087;48.982;12.064;2023-03-09T06:12:12;7.60;99.90
12053;DHT22;6087;48.982;12.064;2023-03-09T06:14:39;7.60;99.90
12053;DHT22;6087;48.982;12.064;2023-03-09T06:17:06;7.60;99.90
12053;DHT22;6087;48.982;12.064;2023-03-09T06:19:32;7.50;99.90
12053;DHT22;6087;48.982;12.064;2023-03-09T06:21:59;7.60;99.90
12053;DHT22;6087;48.982;12.064;2023-03-09T06:24:26;7.50;99.90
12053;DHT22;6087;48.982;12.064;2023-03-09T06:26:56;7.60;99.90
12053;DHT22;6087;48.982;12.064;2023-03-09T06:29:24;7.50;99.90
12053;DHT22;6087;48.982;12.064;2023-03-09T06:31:52;7.50;99.90
12053;DHT22;6087;48.982;12.064;2023-03-09T06:34:18;7.50;99.90
12053;DHT22;6087;48.982;12.064;2023-03-09T06:36:51;7.50;99.90
12053;DHT22;6087;48.982;12.064;2023-03-09T06:39:18;7.50;99.90
12053;DHT22;6087;48.982;12.064;2023-03-09T06:41:45;7.50;99.90
12053;DHT22;6087;48.982;12.064;2023-03-09T06:44:13;7.50;99.90
12053;DHT22;6087;48.982;12.064;2023-03-09T06:46:44;7.50;99.90
12053;DHT22;6087;48.982;12.064;2023-03-09T06:49:11;7.50;99.90
12053;DHT22;6087;48.982;12.064;2023-03-09T06:51:38;7.60;99.90
12053;DHT22;6087;48.982;12.064;2023-03-09T06:54:05;7.60;99.90
12053;DHT22;6087;48.982;12.064;2023-03-09T06:56:32;7.60;99.90
12053;DHT22;6087;48.982;12.064;2023-03-09T06:59:03;7.60;99.90
12053;DHT22;6087;48.982;12.064;2023-03-09T07:01:31;7.60;99.90
12053;DHT22;6087;48.982;12.064;2023-03-09T07:04:00;7.60;99.90
12053;DHT22;6087;48.982;12.064;2023-03-09T07:06:33;7.60;99.90
12053;DHT22;6087;48.982;12.064;2023-03-09T07:08:59;7.60;99.90
12053;DHT22;6087;48.982;12.064;2023-03-09T07:11:26;7.60;99.90
12053;DHT22;6087;48.982;12.064;2023-03-09T07:13:56;7.60;99.90
12053;DHT22;6087;48.982;12.064;2023-03-09T07:16:23;7.70;99.90
12053;DHT22;6087;48.982;12.064;2023-03-09T07:18:50;7.70;99.90
12053;DHT22;6087;48.982;12.064;2023-03-09T07:21:18;7.60;99.90
12053;DHT22;6087;48.982;12.064;2023-03-09T07:23:45;7.70;99.90
12053;DHT22;6087;48.982;12.064;2023-03-09T07:26:12;7.70;99.90
12053;DHT22;6087;48.982;12.064;2023-03-09T07:28:40;7.70;99.90
12053;DHT22;6087;48.982;12.064;2023-03-09T07:31:07;7.80;99.90
12053;DHT22;6087;48.982;12.064;2023-03-09T07:33:35;7.80;99.90
12053;DHT22;6087;48.982;12.064;2023-03-09T07:36:02;7.80;99.90
12053;DHT22;6087;48.982;12.064;2023-03-09T07:38:31;7.80;99.90
12053;DHT22;6087;48.982;12.064;2023-03-09T07:40:58;7.90;99.90
12053;DHT22;6087;48.982;12.064;2023-03-09T07:43:26;7.80;99.90
12053;DHT22;6087;48.982;12.064;2023-03-09T07:45:53;7.90;99.90
12053;DHT22;6087;48.982;12.064;2023-03-09T07:48:20;7.90;99.90
12053;DHT22;6087;48.982;12.064;2023-03-09T07:50:56;7.90;99.90
12053;DHT22;6087;48.982;12.064;2023-03-09T07:53:23;7.90;99.90
12053;DHT22;6087;48.982;12.064;2023-03-09T07:56:06;7.90;99.90
12053;DHT22;6087;48.982;12.064;2023-03-09T07:58:34;7.90;99.90
12053;DHT22;6087;48.982;12.064;2023-03-09T08:01:02;8.00;99.90
12053;DHT22;6087;48.982;12.064;2023-03-09T08:03:30;8.00;99.90
12053;DHT22;6087;48.982;12.064;2023-03-09T08:05:58;8.00;99.90
12053;DHT22;6087;48.982;12.064;2023-03-09T08:08:26;8.10;99.90
12053;DHT22;6087;48.982;12.064;2023-03-09T08:10:55;8.10;99.90
12053;DHT22;6087;48.982;12.064;2023-03-09T08:13:22;8.20;99.90
12053;DHT22;6087;48.982;12.064;2023-03-09T08:15:52;8.20;99.90
12053;DHT22;6087;48.982;12.064;2023-03-09T08:18:19;8.30;93.00
12053;DHT22;6087;48.982;12.064;2023-03-09T08:20:46;8.40;97.80
12053;DHT22;6087;48.982;12.064;2023-03-09T08:23:13;8.40;98.40
12053;DHT22;6087;48.982;12.064;2023-03-09T08:25:40;8.50;56.00
12053;DHT22;6087;48.982;12.064;2023-03-09T08:28:10;8.60;37.90
12053;DHT22;6087;48.982;12.064;2023-03-09T08:30:37;8.60;21.20
12053;DHT22;6087;48.982;12.064;2023-03-09T08:33:13;8.70;18.00
12053;DHT22;6087;48.982;12.064;2023-03-09T08:35:40;8.80;6.50
12053;DHT22;6087;48.982;12.064;2023-03-09T08:38:09;8.80;1.00
12053;DHT22;6087;48.982;12.064;2023-03-09T08:40:37;8.80;1.00
12053;DHT22;6087;48.982;12.064;2023-03-09T08:43:04;8.90;1.00
12053;DHT22;6087;48.982;12.064;2023-03-09T08:45:32;9.00;1.00
12053;DHT22;6087;48.982;12.064;2023-03-09T08:47:59;9.00;1.00
12053;DHT22;6087;48.982;12.064;2023-03-09T08:50:26;9.00;1.00
12053;DHT22;6087;48.982;12.064;2023-03-09T08:52:56;9.00;1.00
12053;DHT22;6087;48.982;12.064;2023-03-09T08:55:35;9.10;1.00
12053;DHT22;6087;48.982;12.064;2023-03-09T08:58:02;9.10;1.00
12053;DHT22;6087;48.982;12.064;2023-03-09T09:00:36;9.10;1.00
12053;DHT22;6087;48.982;12.064;2023-03-09T09:03:03;9.10;1.00
12053;DHT22;6087;48.982;12.064;2023-03-09T09:05:30;9.20;1.00
12053;DHT22;6087;48.982;12.064;2023-03-09T09:07:57;9.20;1.00
12053;DHT22;6087;48.982;12.064;2023-03-09T09:10:31;9.30;1.00
12053;DHT22;6087;48.982;12.064;2023-03-09T09:13:02;9.30;1.00
12053;DHT22;6087;48.982;12.064;2023-03-09T09:15:37;9.30;1.00
12053;DHT22;6087;48.982;12.064;2023-03-09T09:18:06;9.30;1.00
12053;DHT22;6087;48.982;12.064;2023-03-09T09:20:33;9.40;1.00
12053;DHT22;6087;48.982;12.064;2023-03-09T09:23:00;9.40;1.00
12053;DHT22;6087;48.982;12.064;2023-03-09T09:25:27;9.50;1.00
12053;DHT22;6087;48.982;12.064;2023-03-09T09:28:00;9.50;1.00
12053;DHT22;6087;48.982;12.064;2023-03-09T09:30:27;9.50;1.00
12053;DHT22;6087;48.982;12.064;2023-03-09T09:32:59;9.50;1.00
12053;DHT22;6087;48.982;12.064;2023-03-09T09:35:26;9.60;1.00
12053;DHT22;6087;48.982;12.064;2023-03-09T09:37:53;9.60;1.00
12053;DHT22;6087;48.982;12.064;2023-03-09T09:40:21;9.60;1.00
12053;DHT22;6087;48.982;12.064;2023-03-09T09:42:52;9.60;1.00
12053;DHT22;6087;48.982;12.064;2023-03-09T09:45:31;9.70;1.00
12053;DHT22;6087;48.982;12.064;2023-03-09T09:48:04;9.70;1.00
12053;DHT22;6087;48.982;12.064;2023-03-09T09:51:05;9.70;1.00
12053;DHT22;6087;48.982;12.064;2023-03-09T09:53:38;9.70;1.00
12053;DHT22;6087;48.982;12.064;2023-03-09T09:56:12;9.70;1.00
12053;DHT22;6087;48.982;12.064;2023-03-09T09:59:03;9.60;1.00
12053;DHT22;6087;48.982;12.064;2023-03-09T10:01:38;9.60;1.00
12053;DHT22;6087;48.982;12.064;2023-03-09T10:04:14;9.60;1.00
12053;DHT22;6087;48.982;12.064;2023-03-09T10:06:46;9.60;1.00
12053;DHT22;6087;48.982;12.064;2023-03-09T10:09:21;9.70;1.00
12053;DHT22;6087;48.982;12.064;2023-03-09T10:11:53;9.70;1.00
12053;DHT22;6087;48.982;12.064;2023-03-09T10:14:26;9.70;1.00
12053;DHT22;6087;48.982;12.064;2023-03-09T10:16:57;9.70;9.90
12053;DHT22;6087;48.982;12.064;2023-03-09T10:19:29;9.60;60.00
12053;DHT22;6087;48.982;12.064;2023-03-09T10:21:59;9.60;86.40
12053;DHT22;6087;48.982;12.064;2023-03-09T10:24:27;9.50;96.60
12053;DHT22;6087;48.982;12.064;2023-03-09T10:27:01;9.40;95.00
12053;DHT22;6087;48.982;12.064;2023-03-09T10:29:41;9.40;99.90
12053;DHT22;6087;48.982;12.064;2023-03-09T10:32:15;9.40;99.90
12053;DHT22;6087;48.982;12.064;2023-03-09T10:34:55;9.30;99.90
12053;DHT22;6087;48.982;12.064;2023-03-09T10:37:24;9.30;99.90
12053;DHT22;6087;48.982;12.064;2023-03-09T10:39:51;9.30;99.90
12053;DHT22;6087;48.982;12.064;2023-03-09T10:42:23;9.20;99.90
12053;DHT22;6087;48.982;12.064;2023-03-09T10:45:00;9.20;99.90
12053;DHT22;6087;48.982;12.064;2023-03-09T10:47:51;9.20;99.90
12053;DHT22;6087;48.982;12.064;2023-03-09T10:50:20;9.20;99.90
12053;DHT22;6087;48.982;12.064;2023-03-09T10:52:48;9.20;99.90
12053;DHT22;6087;48.982;12.064;2023-03-09T10:55:32;9.20;99.90
12053;DHT22;6087;48.982;12.064;2023-03-09T10:58:01;9.20;99.90
12053;DHT22;6087;48.982;12.064;2023-03-09T11:00:28;9.20;99.90
12053;DHT22;6087;48.982;12.064;2023-03-09T11:02:57;9.20;99.90
12053;DHT22;6087;48.982;12.064;2023-03-09T11:05:28;9.30;99.90
12053;DHT22;6087;48.982;12.064;2023-03-09T11:07:56;9.30;99.90
12053;DHT22;6087;48.982;12.064;2023-03-09T11:10:26;9.30;99.90
12053;DHT22;6087;48.982;12.064;2023-03-09T11:12:53;9.30;99.90
12053;DHT22;6087;48.982;12.064;2023-03-09T11:15:27;9.30;99.90
12053;DHT22;6087;48.982;12.064;2023-03-09T11:17:55;9.30;99.90
12053;DHT22;6087;48.982;12.064;2023-03-09T11:20:27;9.30;99.90
12053;DHT22;6087;48.982;12.064;2023-03-09T11:22:59;9.20;99.90
12053;DHT22;6087;48.982;12.064;2023-03-09T11:25:45;9.20;99.90
12053;DHT22;6087;48.982;12.064;2023-03-09T11:28:23;9.20;99.90
12053;DHT22;6087;48.982;12.064;2023-03-09T11:30:54;9.20;99.90
12053;DHT22;6087;48.982;12.064;2023-03-09T11:33:22;9.10;99.90
12053;DHT22;6087;48.982;12.064;2023-03-09T11:35:53;9.10;99.90
12053;DHT22;6087;48.982;12.064;2023-03-09T11:38:21;9.10;99.90
12053;DHT22;6087;48.982;12.064;2023-03-09T11:40:55;9.10;99.90
12053;DHT22;6087;48.982;12.064;2023-03-09T11:43:27;9.00;99.90
12053;DHT22;6087;48.982;12.064;2023-03-09T11:46:00;9.00;99.90
12053;DHT22;6087;48.982;12.064;2023-03-09T11:48:30;9.00;99.90
12053;DHT22;6087;48.982;12.064;2023-03-09T11:51:05;9.00;99.90
12053;DHT22;6087;48.982;12.064;2023-03-09T11:53:35;9.10;99.90
12053;DHT22;6087;48.982;12.064;2023-03-09T11:56:14;9.40;99.90
12053;DHT22;6087;48.982;12.064;2023-03-09T11:58:45;9.50;99.90
12053;DHT22;6087;48.982;12.064;2023-03-09T12:01:19;9.60;99.90
12053;DHT22;6087;48.982;12.064;2023-03-09T12:03:52;9.70;99.90
12053;DHT22;6087;48.982;12.064;2023-03-09T12:06:35;9.80;99.90
12053;DHT22;6087;48.982;12.064;2023-03-09T12:09:06;10.00;98.80
12053;DHT22;6087;48.982;12.064;2023-03-09T12:11:38;10.20;84.30
12053;DHT22;6087;48.982;12.064;2023-03-09T12:14:13;10.30;63.70
12053;DHT22;6087;48.982;12.064;2023-03-09T12:16:43;10.60;90.70
12053;DHT22;6087;48.982;12.064;2023-03-09T12:19:15;11.10;76.20
12053;DHT22;6087;48.982;12.064;2023-03-09T12:21:46;12.30;1.00
12053;DHT22;6087;48.982;12.064;2023-03-09T12:24:31;13.00;1.00
12053;DHT22;6087;48.982;12.064;2023-03-09T12:27:02;12.90;1.00
12053;DHT22;6087;48.982;12.064;2023-03-09T12:29:34;12.40;1.00
12053;DHT22;6087;48.982;12.064;2023-03-09T12:35:13;11.90;1.00
12053;DHT22;6087;48.982;12.064;2023-03-09T12:38:19;11.60;1.00
12053;DHT22;6087;48.982;12.064;2023-03-09T12:40:48;11.20;1.00
12053;DHT22;6087;48.982;12.064;2023-03-09T12:47:01;10.90;1.00
12053;DHT22;6087;48.982;12.064;2023-03-09T12:49:33;10.80;1.00
12053;DHT22;6087;48.982;12.064;2023-03-09T12:52:32;10.80;1.00
12053;DHT22;6087;48.982;12.064;2023-03-09T12:55:10;10.80;1.00
12053;DHT22;6087;48.982;12.064;2023-03-09T12:57:39;10.70;1.00
12053;DHT22;6087;48.982;12.064;2023-03-09T13:00:28;10.60;1.00
12053;DHT22;6087;48.982;12.064;2023-03-09T13:02:59;10.60;1.00
12053;DHT22;6087;48.982;12.064;2023-03-09T13:05:30;10.60;1.00
12053;DHT22;6087;48.982;12.064;2023-03-09T13:08:01;10.60;1.00
12053;DHT22;6087;48.982;12.064;2023-03-09T13:10:33;10.80;1.00
12053;DHT22;6087;48.982;12.064;2023-03-09T13:13:35;11.30;1.00
12053;DHT22;6087;48.982;12.064;2023-03-09T13:19:29;13.10;1.00
12053;DHT22;6087;48.982;12.064;2023-03-09T13:22:16;13.00;99.90
12053;DHT22;6087;48.982;12.064;2023-03-09T13:24:46;12.70;99.90
12053;DHT22;6087;48.982;12.064;2023-03-09T13:27:20;12.50;99.90
12053;DHT22;6087;48.982;12.064;2023-03-09T13:29:49;12.40;99.90
12053;DHT22;6087;48.982;12.064;2023-03-09T13:32:29;12.70;57.50
12053;DHT22;6087;48.982;12.064;2023-03-09T13:34:57;12.40;99.90
12053;DHT22;6087;48.982;12.064;2023-03-09T13:37:28;12.30;1.00
12053;DHT22;6087;48.982;12.064;2023-03-09T13:39:56;12.20;1.00
12053;DHT22;6087;48.982;12.064;2023-03-09T13:42:26;12.00;1.00
12053;DHT22;6087;48.982;12.064;2023-03-09T13:44:53;12.10;1.00
12053;DHT22;6087;48.982;12.064;2023-03-09T13:47:23;12.30;99.90
12053;DHT22;6087;48.982;12.064;2023-03-09T13:49:51;12.20;99.90
12053;DHT22;6087;48.982;12.064;2023-03-09T13:52:19;12.10;99.90
12053;DHT22;6087;48.982;12.064;2023-03-09T13:54:50;12.10;1.00
12053;DHT22;6087;48.982;12.064;2023-03-09T13:57:20;12.00;1.00
12053;DHT22;6087;48.982;12.064;2023-03-09T13:59:55;12.00;40.60
12053;DHT22;6087;48.982;12.064;2023-03-09T14:02:23;11.90;99.90
12053;DHT22;6087;48.982;12.064;2023-03-09T14:05:01;11.80;1.00
12053;DHT22;6087;48.982;12.064;2023-03-09T14:07:32;11.80;1.00
12053;DHT22;6087;48.982;12.064;2023-03-09T14:10:04;11.70;99.90
12053;DHT22;6087;48.982;12.064;2023-03-09T14:12:33;11.60;1.00
12053;DHT22;6087;48.982;12.064;2023-03-09T14:15:05;11.60;99.90
12053;DHT22;6087;48.982;12.064;2023-03-09T14:17:34;11.60;57.20
12053;DHT22;6087;48.982;12.064;2023-03-09T14:20:01;11.60;99.90
12053;DHT22;6087;48.982;12.064;2023-03-09T14:22:30;11.60;1.00
12053;DHT22;6087;48.982;12.064;2023-03-09T14:24:58;11.60;99.90
12053;DHT22;6087;48.982;12.064;2023-03-09T14:27:29;11.50;1.00
12053;DHT22;6087;48.982;12.064;2023-03-09T14:29:57;11.50;99.90
12053;DHT22;6087;48.982;12.064;2023-03-09T14:32:27;11.50;1.00
12053;DHT22;6087;48.982;12.064;2023-03-09T14:34:56;11.40;99.90
12053;DHT22;6087;48.982;12.064;2023-03-09T14:37:25;11.40;99.90
12053;DHT22;6087;48.982;12.064;2023-03-09T14:39:54;11.30;99.90
12053;DHT22;6087;48.982;12.064;2023-03-09T14:42:27;11.20;1.00
12053;DHT22;6087;48.982;12.064;2023-03-09T14:45:20;11.20;1.00
12053;DHT22;6087;48.982;12.064;2023-03-09T14:47:52;11.20;1.00
12053;DHT22;6087;48.982;12.064;2023-03-09T14:50:23;11.40;1.00
12053;DHT22;6087;48.982;12.064;2023-03-09T14:52:50;11.60;1.00
12053;DHT22;6087;48.982;12.064;2023-03-09T14:55:19;11.80;1.00
12053;DHT22;6087;48.982;12.064;2023-03-09T14:57:47;11.70;1.00
12053;DHT22;6087;48.982;12.064;2023-03-09T15:00:16;11.80;1.00
12053;DHT22;6087;48.982;12.064;2023-03-09T15:02:44;11.70;1.00
12053;DHT22;6087;48.982;12.064;2023-03-09T15:05:17;11.50;1.00
12053;DHT22;6087;48.982;12.064;2023-03-09T15:07:44;11.50;1.00
12053;DHT22;6087;48.982;12.064;2023-03-09T15:10:11;11.40;1.00
12053;DHT22;6087;48.982;12.064;2023-03-09T15:12:39;11.40;99.90
12053;DHT22;6087;48.982;12.064;2023-03-09T15:15:17;11.30;1.00
12053;DHT22;6087;48.982;12.064;2023-03-09T15:17:45;11.30;1.00
12053;DHT22;6087;48.982;12.064;2023-03-09T15:20:13;11.30;99.90
12053;DHT22;6087;48.982;12.064;2023-03-09T15:22:42;11.30;1.00
12053;DHT22;6087;48.982;12.064;2023-03-09T15:25:11;11.30;1.00
12053;DHT22;6087;48.982;12.064;2023-03-09T15:27:38;11.20;1.00
12053;DHT22;6087;48.982;12.064;2023-03-09T15:30:06;11.20;95.20
12053;DHT22;6087;48.982;12.064;2023-03-09T15:32:34;11.20;1.00
12053;DHT22;6087;48.982;12.064;2023-03-09T15:35:00;11.20;99.90
12053;DHT22;6087;48.982;12.064;2023-03-09T15:37:30;11.20;99.90
12053;DHT22;6087;48.982;12.064;2023-03-09T15:40:01;11.30;1.00
12053;DHT22;6087;48.982;12.064;2023-03-09T15:42:28;11.30;1.00
12053;DHT22;6087;48.982;12.064;2023-03-09T15:44:55;11.30;99.90
12053;DHT22;6087;48.982;12.064;2023-03-09T15:47:22;11.20;1.00
12053;DHT22;6087;48.982;12.064;2023-03-09T15:49:49;11.30;1.00
12053;DHT22;6087;48.982;12.064;2023-03-09T15:52:15;11.20;99.90
12053;DHT22;6087;48.982;12.064;2023-03-09T15:54:42;11.20;99.90
12053;DHT22;6087;48.982;12.064;2023-03-09T15:57:11;11.20;1.00
12053;DHT22;6087;48.982;12.064;2023-03-09T15:59:37;11.20;1.00
12053;DHT22;6087;48.982;12.064;2023-03-09T16:02:04;11.20;1.00
12053;DHT22;6087;48.982;12.064;2023-03-09T16:04:31;11.20;1.00
12053;DHT22;6087;48.982;12.064;2023-03-09T16:06:58;11.10;1.00
12053;DHT22;6087;48.982;12.064;2023-03-09T16:09:25;11.20;1.00
12053;DHT22;6087;48.982;12.064;2023-03-09T16:11:52;11.10;1.00
12053;DHT22;6087;48.982;12.064;2023-03-09T16:14:21;11.10;1.00
12053;DHT22;6087;48.982;12.064;2023-03-09T16:16:48;11.00;1.00